首页
METAR-TAF:

METAR-TAF

机场 :

通孔廷国际机场

德古斯加巴, 洪都拉斯

纬度: 14-03N, 经度: 087-13W, 海拔: 994米

当前天气观测

该预报发布于44分钟前的05:00 UTC
风速2节,风向西转西南
温度 21°C
湿度 94%
气压 1020 hPa
能见度10公里或以上
少量云层高于3000英尺
散云层高于3600英尺

METAR: MHTG 220500Z 25002KT 9999 FEW030 SCT036 21/20 Q1020 A3012 NOSIG

时间: 23:44 (05:44 UTC)

预报

该预报发布于7小时和4分钟前的22:40 UTC
预报有效从22日的 00点(UTC)到 22日的 24点(UTC)
风速5节,风向多变
能见度10公里或以上
多云层高于8000英尺
成为
从 22日的 10点(UTC)到 22日的 12点(UTC)
能見度: 7000
少量云层高于1000英尺
多云层高于2400英尺
成为
从 22日的 14点(UTC)到 22日的 16点(UTC)
风速12节,风向北转东北
能见度10公里或以上
散云层高于2400英尺
成为
从 22日的 18点(UTC)到 22日的 20点(UTC)
散云层高于2800英尺, 塔状积云.
少量云层高于3200英尺, 积雨云.

TAF: MHTG 212240Z 2200/2224 VRB05KT 9999 STC028 BKN080 TX26/2220Z TN19/2212Z BECMG 2210/2212 7000 RA FEW010 BKN024 BECMG 2214/2216 02012KT 9999 SCT024 BECMG 2218/2220 SCT028TCU FEW032CB

超过4000个机场的气象观测和天气预报(METAR&TAF报告)。

可查询的气象台以黄色和红色小点在地图上表示。

将鼠标移到小点上方,可查看气象台名称。

然后点击查看天气观测和预报。

如需切换地图:点击带黑十字的绿色按钮放大地图;点击带横线的绿色按钮缩小地图;或者点击绿色箭头查看邻近地区的地图。


METAR-TAF: